sensor_id;sensor_type;location;lat;lon;timestamp;temperature;humidity
37050;DHT22;22958;51.232;6.826;2023-08-21T00:01:13;20.10;99.90
37050;DHT22;22958;51.232;6.826;2023-08-21T00:03:38;20.10;99.90
37050;DHT22;22958;51.232;6.826;2023-08-21T00:06:03;20.00;99.90
37050;DHT22;22958;51.232;6.826;2023-08-21T00:08:29;19.90;99.90
37050;DHT22;22958;51.232;6.826;2023-08-21T00:10:55;19.90;99.90
37050;DHT22;22958;51.232;6.826;2023-08-21T00:13:21;19.90;99.90
37050;DHT22;22958;51.232;6.826;2023-08-21T00:15:46;19.90;99.90
37050;DHT22;22958;51.232;6.826;2023-08-21T00:18:12;19.80;99.90
37050;DHT22;22958;51.232;6.826;2023-08-21T00:20:38;19.80;99.90
37050;DHT22;22958;51.232;6.826;2023-08-21T00:23:04;19.70;99.90
37050;DHT22;22958;51.232;6.826;2023-08-21T00:25:30;19.70;99.90
37050;DHT22;22958;51.232;6.826;2023-08-21T00:27:55;19.70;99.90
37050;DHT22;22958;51.232;6.826;2023-08-21T00:30:21;19.60;99.90
37050;DHT22;22958;51.232;6.826;2023-08-21T00:32:46;19.60;99.90
37050;DHT22;22958;51.232;6.826;2023-08-21T00:35:11;19.60;99.90
37050;DHT22;22958;51.232;6.826;2023-08-21T00:37:37;19.60;99.90
37050;DHT22;22958;51.232;6.826;2023-08-21T00:40:03;19.60;99.90
37050;DHT22;22958;51.232;6.826;2023-08-21T00:42:29;19.60;99.90
37050;DHT22;22958;51.232;6.826;2023-08-21T00:44:54;19.60;99.90
37050;DHT22;22958;51.232;6.826;2023-08-21T00:47:20;19.60;99.90
37050;DHT22;22958;51.232;6.826;2023-08-21T00:49:45;19.60;99.90
37050;DHT22;22958;51.232;6.826;2023-08-21T00:52:12;19.70;99.90
37050;DHT22;22958;51.232;6.826;2023-08-21T00:54:39;19.70;99.90
37050;DHT22;22958;51.232;6.826;2023-08-21T00:57:05;19.60;99.90
37050;DHT22;22958;51.232;6.826;2023-08-21T00:59:31;19.60;99.90
37050;DHT22;22958;51.232;6.826;2023-08-21T01:01:57;19.60;99.90
37050;DHT22;22958;51.232;6.826;2023-08-21T01:04:22;19.60;99.90
37050;DHT22;22958;51.232;6.826;2023-08-21T01:06:49;19.50;99.90
37050;DHT22;22958;51.232;6.826;2023-08-21T01:09:24;19.50;99.90
37050;DHT22;22958;51.232;6.826;2023-08-21T01:12:05;19.50;99.90
37050;DHT22;22958;51.232;6.826;2023-08-21T01:14:51;19.50;99.90
37050;DHT22;22958;51.232;6.826;2023-08-21T01:17:21;19.50;99.90
37050;DHT22;22958;51.232;6.826;2023-08-21T01:19:49;19.50;99.90
37050;DHT22;22958;51.232;6.826;2023-08-21T01:22:15;19.50;99.90
37050;DHT22;22958;51.232;6.826;2023-08-21T01:24:41;19.50;99.90
37050;DHT22;22958;51.232;6.826;2023-08-21T01:27:07;19.40;99.90
37050;DHT22;22958;51.232;6.826;2023-08-21T01:29:33;19.40;99.90
37050;DHT22;22958;51.232;6.826;2023-08-21T01:32:06;19.30;99.90
37050;DHT22;22958;51.232;6.826;2023-08-21T01:34:34;19.40;99.90
37050;DHT22;22958;51.232;6.826;2023-08-21T01:37:01;19.40;99.90
37050;DHT22;22958;51.232;6.826;2023-08-21T01:39:27;19.40;99.90
37050;DHT22;22958;51.232;6.826;2023-08-21T01:41:53;19.40;99.90
37050;DHT22;22958;51.232;6.826;2023-08-21T01:44:19;19.40;99.90
37050;DHT22;22958;51.232;6.826;2023-08-21T01:46:44;19.50;99.90
37050;DHT22;22958;51.232;6.826;2023-08-21T01:49:10;19.40;99.90
37050;DHT22;22958;51.232;6.826;2023-08-21T01:51:35;19.40;99.90
37050;DHT22;22958;51.232;6.826;2023-08-21T01:54:01;19.40;99.90
37050;DHT22;22958;51.232;6.826;2023-08-21T01:56:26;19.30;99.90
37050;DHT22;22958;51.232;6.826;2023-08-21T01:58:52;19.30;99.90
37050;DHT22;22958;51.232;6.826;2023-08-21T02:01:17;19.30;99.90
37050;DHT22;22958;51.232;6.826;2023-08-21T02:03:44;19.20;99.90
37050;DHT22;22958;51.232;6.826;2023-08-21T02:06:10;19.20;99.90
37050;DHT22;22958;51.232;6.826;2023-08-21T02:08:35;19.20;99.90
37050;DHT22;22958;51.232;6.826;2023-08-21T02:11:01;19.20;99.90
37050;DHT22;22958;51.232;6.826;2023-08-21T02:13:26;19.20;99.90
37050;DHT22;22958;51.232;6.826;2023-08-21T02:15:52;19.20;99.90
37050;DHT22;22958;51.232;6.826;2023-08-21T02:18:18;19.20;99.90
37050;DHT22;22958;51.232;6.826;2023-08-21T02:20:43;19.20;99.90
37050;DHT22;22958;51.232;6.826;2023-08-21T02:23:09;19.20;99.90
37050;DHT22;22958;51.232;6.826;2023-08-21T02:25:34;19.20;99.90
37050;DHT22;22958;51.232;6.826;2023-08-21T02:28:00;19.30;99.90
37050;DHT22;22958;51.232;6.826;2023-08-21T02:30:27;19.40;99.90
37050;DHT22;22958;51.232;6.826;2023-08-21T02:32:53;19.30;99.90
37050;DHT22;22958;51.232;6.826;2023-08-21T02:35:20;19.30;99.90
37050;DHT22;22958;51.232;6.826;2023-08-21T02:37:45;19.30;99.90
37050;DHT22;22958;51.232;6.826;2023-08-21T02:40:11;19.30;99.90
37050;DHT22;22958;51.232;6.826;2023-08-21T02:42:37;19.20;99.90
37050;DHT22;22958;51.232;6.826;2023-08-21T02:45:03;19.20;99.90
37050;DHT22;22958;51.232;6.826;2023-08-21T02:47:38;19.20;99.90
37050;DHT22;22958;51.232;6.826;2023-08-21T02:50:04;19.20;99.90
37050;DHT22;22958;51.232;6.826;2023-08-21T02:52:30;19.10;99.90
37050;DHT22;22958;51.232;6.826;2023-08-21T02:54:56;19.10;99.90
37050;DHT22;22958;51.232;6.826;2023-08-21T02:57:21;19.10;99.90
37050;DHT22;22958;51.232;6.826;2023-08-21T02:59:47;19.10;99.90
37050;DHT22;22958;51.232;6.826;2023-08-21T03:02:12;19.10;99.90
37050;DHT22;22958;51.232;6.826;2023-08-21T03:04:38;19.10;99.90
37050;DHT22;22958;51.232;6.826;2023-08-21T03:07:03;19.10;99.90
37050;DHT22;22958;51.232;6.826;2023-08-21T03:09:29;19.10;99.90
37050;DHT22;22958;51.232;6.826;2023-08-21T03:11:54;19.10;99.90
37050;DHT22;22958;51.232;6.826;2023-08-21T03:14:20;19.10;99.90
37050;DHT22;22958;51.232;6.826;2023-08-21T03:16:45;19.10;99.90
37050;DHT22;22958;51.232;6.826;2023-08-21T03:19:11;19.10;99.90
37050;DHT22;22958;51.232;6.826;2023-08-21T03:21:36;19.10;99.90
37050;DHT22;22958;51.232;6.826;2023-08-21T03:24:02;19.10;99.90
37050;DHT22;22958;51.232;6.826;2023-08-21T03:26:28;19.10;99.90
37050;DHT22;22958;51.232;6.826;2023-08-21T03:28:53;19.10;99.90
37050;DHT22;22958;51.232;6.826;2023-08-21T03:31:19;19.10;99.90
37050;DHT22;22958;51.232;6.826;2023-08-21T03:33:44;19.10;99.90
37050;DHT22;22958;51.232;6.826;2023-08-21T03:36:10;19.10;99.90
37050;DHT22;22958;51.232;6.826;2023-08-21T03:38:35;19.10;99.90
37050;DHT22;22958;51.232;6.826;2023-08-21T03:41:01;19.10;99.90
37050;DHT22;22958;51.232;6.826;2023-08-21T03:43:27;19.10;99.90
37050;DHT22;22958;51.232;6.826;2023-08-21T03:45:53;19.10;99.90
37050;DHT22;22958;51.232;6.826;2023-08-21T03:48:18;19.10;99.90
37050;DHT22;22958;51.232;6.826;2023-08-21T03:50:44;19.10;99.90
37050;DHT22;22958;51.232;6.826;2023-08-21T03:53:09;19.20;99.90
37050;DHT22;22958;51.232;6.826;2023-08-21T03:55:35;19.20;99.90
37050;DHT22;22958;51.232;6.826;2023-08-21T03:58:01;19.20;99.90
37050;DHT22;22958;51.232;6.826;2023-08-21T04:00:26;19.10;99.90
37050;DHT22;22958;51.232;6.826;2023-08-21T04:02:52;19.00;99.90
37050;DHT22;22958;51.232;6.826;2023-08-21T04:05:17;19.00;99.90
37050;DHT22;22958;51.232;6.826;2023-08-21T04:07:43;18.90;99.90
37050;DHT22;22958;51.232;6.826;2023-08-21T04:10:09;18.90;99.90
37050;DHT22;22958;51.232;6.826;2023-08-21T04:12:34;18.90;99.90
37050;DHT22;22958;51.232;6.826;2023-08-21T04:15:00;18.90;99.90
37050;DHT22;22958;51.232;6.826;2023-08-21T04:17:25;18.90;99.90
37050;DHT22;22958;51.232;6.826;2023-08-21T04:19:51;18.90;99.90
37050;DHT22;22958;51.232;6.826;2023-08-21T04:22:17;18.90;99.90
37050;DHT22;22958;51.232;6.826;2023-08-21T04:24:42;18.90;99.90
37050;DHT22;22958;51.232;6.826;2023-08-21T04:27:08;18.90;99.90
37050;DHT22;22958;51.232;6.826;2023-08-21T04:29:35;18.90;99.90
37050;DHT22;22958;51.232;6.826;2023-08-21T04:32:01;19.00;99.90
37050;DHT22;22958;51.232;6.826;2023-08-21T04:34:27;19.00;99.90
37050;DHT22;22958;51.232;6.826;2023-08-21T04:36:52;19.10;99.90
37050;DHT22;22958;51.232;6.826;2023-08-21T04:39:18;19.10;99.90
37050;DHT22;22958;51.232;6.826;2023-08-21T04:41:44;19.30;99.90
37050;DHT22;22958;51.232;6.826;2023-08-21T04:44:09;19.30;99.90
37050;DHT22;22958;51.232;6.826;2023-08-21T04:46:35;19.10;99.90
37050;DHT22;22958;51.232;6.826;2023-08-21T04:49:00;19.10;99.90
37050;DHT22;22958;51.232;6.826;2023-08-21T04:51:26;19.10;99.90
37050;DHT22;22958;51.232;6.826;2023-08-21T04:53:51;19.10;99.90
37050;DHT22;22958;51.232;6.826;2023-08-21T04:56:17;19.10;99.90
37050;DHT22;22958;51.232;6.826;2023-08-21T04:58:42;19.10;99.90
37050;DHT22;22958;51.232;6.826;2023-08-21T05:01:08;19.20;99.90
37050;DHT22;22958;51.232;6.826;2023-08-21T05:03:34;19.20;99.90
37050;DHT22;22958;51.232;6.826;2023-08-21T05:05:59;19.30;99.90
37050;DHT22;22958;51.232;6.826;2023-08-21T05:08:26;19.20;99.90
37050;DHT22;22958;51.232;6.826;2023-08-21T05:11:09;19.20;99.90
37050;DHT22;22958;51.232;6.826;2023-08-21T05:13:35;19.20;99.90
37050;DHT22;22958;51.232;6.826;2023-08-21T05:16:01;19.10;99.90
37050;DHT22;22958;51.232;6.826;2023-08-21T05:18:27;19.20;99.90
37050;DHT22;22958;51.232;6.826;2023-08-21T05:20:55;19.20;99.90
37050;DHT22;22958;51.232;6.826;2023-08-21T05:23:21;19.30;99.90
37050;DHT22;22958;51.232;6.826;2023-08-21T05:25:49;19.30;99.90
37050;DHT22;22958;51.232;6.826;2023-08-21T05:28:14;19.40;99.90
37050;DHT22;22958;51.232;6.826;2023-08-21T05:30:40;19.50;99.90
37050;DHT22;22958;51.232;6.826;2023-08-21T05:33:06;19.50;99.90
37050;DHT22;22958;51.232;6.826;2023-08-21T05:35:35;19.60;99.90
37050;DHT22;22958;51.232;6.826;2023-08-21T05:38:03;19.80;99.90
37050;DHT22;22958;51.232;6.826;2023-08-21T05:40:29;19.90;99.90
37050;DHT22;22958;51.232;6.826;2023-08-21T05:42:55;20.10;99.90
37050;DHT22;22958;51.232;6.826;2023-08-21T05:45:20;20.20;99.90
37050;DHT22;22958;51.232;6.826;2023-08-21T05:47:46;20.50;99.90
37050;DHT22;22958;51.232;6.826;2023-08-21T05:50:12;20.70;99.90
37050;DHT22;22958;51.232;6.826;2023-08-21T05:52:37;20.80;99.90
37050;DHT22;22958;51.232;6.826;2023-08-21T05:55:04;20.90;99.90
37050;DHT22;22958;51.232;6.826;2023-08-21T05:57:29;20.90;99.90
37050;DHT22;22958;51.232;6.826;2023-08-21T05:59:55;20.90;99.90
37050;DHT22;22958;51.232;6.826;2023-08-21T06:02:21;21.10;99.90
37050;DHT22;22958;51.232;6.826;2023-08-21T06:04:46;21.20;99.90
37050;DHT22;22958;51.232;6.826;2023-08-21T06:07:12;21.30;99.90
37050;DHT22;22958;51.232;6.826;2023-08-21T06:09:37;21.40;99.90
37050;DHT22;22958;51.232;6.826;2023-08-21T06:12:03;21.40;99.90
37050;DHT22;22958;51.232;6.826;2023-08-21T06:14:29;21.40;99.90
37050;DHT22;22958;51.232;6.826;2023-08-21T06:17:02;21.40;99.90
37050;DHT22;22958;51.232;6.826;2023-08-21T06:19:28;21.40;99.90
37050;DHT22;22958;51.232;6.826;2023-08-21T06:21:57;21.50;99.90
37050;DHT22;22958;51.232;6.826;2023-08-21T06:24:23;21.60;99.90
37050;DHT22;22958;51.232;6.826;2023-08-21T06:26:50;21.80;99.90
37050;DHT22;22958;51.232;6.826;2023-08-21T06:29:16;21.80;99.90
37050;DHT22;22958;51.232;6.826;2023-08-21T06:31:42;22.00;99.90
37050;DHT22;22958;51.232;6.826;2023-08-21T06:34:08;22.10;99.90
37050;DHT22;22958;51.232;6.826;2023-08-21T06:36:33;22.00;99.90
37050;DHT22;22958;51.232;6.826;2023-08-21T06:38:59;22.10;99.90
37050;DHT22;22958;51.232;6.826;2023-08-21T06:41:24;22.20;99.90
37050;DHT22;22958;51.232;6.826;2023-08-21T06:43:51;22.40;99.90
37050;DHT22;22958;51.232;6.826;2023-08-21T06:46:16;22.40;99.90
37050;DHT22;22958;51.232;6.826;2023-08-21T06:48:42;22.40;99.90
37050;DHT22;22958;51.232;6.826;2023-08-21T06:51:08;22.40;99.90
37050;DHT22;22958;51.232;6.826;2023-08-21T06:53:34;22.50;99.90
37050;DHT22;22958;51.232;6.826;2023-08-21T06:56:00;22.60;99.90
37050;DHT22;22958;51.232;6.826;2023-08-21T06:58:25;22.50;99.90
37050;DHT22;22958;51.232;6.826;2023-08-21T07:00:53;22.60;99.90
37050;DHT22;22958;51.232;6.826;2023-08-21T07:03:18;22.70;99.90
37050;DHT22;22958;51.232;6.826;2023-08-21T07:05:46;22.90;99.90
37050;DHT22;22958;51.232;6.826;2023-08-21T07:08:18;23.00;99.90
37050;DHT22;22958;51.232;6.826;2023-08-21T07:10:44;23.20;99.90
37050;DHT22;22958;51.232;6.826;2023-08-21T07:13:09;23.40;99.90
37050;DHT22;22958;51.232;6.826;2023-08-21T07:15:35;23.60;99.90
37050;DHT22;22958;51.232;6.826;2023-08-21T07:18:00;23.50;99.90
37050;DHT22;22958;51.232;6.826;2023-08-21T07:20:26;23.50;99.90
37050;DHT22;22958;51.232;6.826;2023-08-21T07:22:51;23.30;99.90
37050;DHT22;22958;51.232;6.826;2023-08-21T07:25:17;23.40;99.90
37050;DHT22;22958;51.232;6.826;2023-08-21T07:27:42;23.60;99.90
37050;DHT22;22958;51.232;6.826;2023-08-21T07:30:08;23.60;99.90
37050;DHT22;22958;51.232;6.826;2023-08-21T07:32:34;23.90;99.90
37050;DHT22;22958;51.232;6.826;2023-08-21T07:34:59;23.80;99.90
37050;DHT22;22958;51.232;6.826;2023-08-21T07:37:25;23.80;99.90
37050;DHT22;22958;51.232;6.826;2023-08-21T07:39:50;23.60;99.90
37050;DHT22;22958;51.232;6.826;2023-08-21T07:42:17;23.70;99.90
37050;DHT22;22958;51.232;6.826;2023-08-21T07:44:44;23.80;99.90
37050;DHT22;22958;51.232;6.826;2023-08-21T07:47:10;23.90;99.90
37050;DHT22;22958;51.232;6.826;2023-08-21T07:49:35;24.10;99.90
37050;DHT22;22958;51.232;6.826;2023-08-21T07:52:03;23.70;99.90
37050;DHT22;22958;51.232;6.826;2023-08-21T07:54:28;23.40;99.90
37050;DHT22;22958;51.232;6.826;2023-08-21T07:56:54;23.30;99.90
37050;DHT22;22958;51.232;6.826;2023-08-21T07:59:20;23.50;99.90
37050;DHT22;22958;51.232;6.826;2023-08-21T08:01:46;23.40;99.90
37050;DHT22;22958;51.232;6.826;2023-08-21T08:04:11;23.30;99.90
37050;DHT22;22958;51.232;6.826;2023-08-21T08:06:37;23.10;99.90
37050;DHT22;22958;51.232;6.826;2023-08-21T08:09:02;23.10;99.90
37050;DHT22;22958;51.232;6.826;2023-08-21T08:11:31;23.30;99.90
37050;DHT22;22958;51.232;6.826;2023-08-21T08:13:56;23.40;99.90
37050;DHT22;22958;51.232;6.826;2023-08-21T08:16:22;23.50;99.90
37050;DHT22;22958;51.232;6.826;2023-08-21T08:18:48;23.40;99.90
37050;DHT22;22958;51.232;6.826;2023-08-21T08:21:14;23.50;99.90
37050;DHT22;22958;51.232;6.826;2023-08-21T08:23:39;23.60;99.90
37050;DHT22;22958;51.232;6.826;2023-08-21T08:26:05;23.80;99.90
37050;DHT22;22958;51.232;6.826;2023-08-21T08:28:31;23.80;99.90
37050;DHT22;22958;51.232;6.826;2023-08-21T08:30:56;24.20;99.90
37050;DHT22;22958;51.232;6.826;2023-08-21T08:33:23;24.10;99.90
37050;DHT22;22958;51.232;6.826;2023-08-21T08:35:48;24.30;99.90
37050;DHT22;22958;51.232;6.826;2023-08-21T08:38:14;24.60;99.90
37050;DHT22;22958;51.232;6.826;2023-08-21T08:40:45;24.50;99.90
37050;DHT22;22958;51.232;6.826;2023-08-21T08:43:12;24.40;99.90
37050;DHT22;22958;51.232;6.826;2023-08-21T08:45:40;24.40;99.90
37050;DHT22;22958;51.232;6.826;2023-08-21T08:48:07;24.20;99.90
37050;DHT22;22958;51.232;6.826;2023-08-21T08:50:33;24.30;99.90
37050;DHT22;22958;51.232;6.826;2023-08-21T08:53:00;24.40;99.90
37050;DHT22;22958;51.232;6.826;2023-08-21T08:55:26;24.60;99.90
37050;DHT22;22958;51.232;6.826;2023-08-21T08:57:52;24.60;99.90
37050;DHT22;22958;51.232;6.826;2023-08-21T09:00:19;24.60;99.90
37050;DHT22;22958;51.232;6.826;2023-08-21T09:02:46;24.70;99.90
37050;DHT22;22958;51.232;6.826;2023-08-21T09:05:11;24.70;99.90
37050;DHT22;22958;51.232;6.826;2023-08-21T09:07:38;24.50;99.90
37050;DHT22;22958;51.232;6.826;2023-08-21T09:10:04;24.40;99.90
37050;DHT22;22958;51.232;6.826;2023-08-21T09:12:31;24.50;99.90
37050;DHT22;22958;51.232;6.826;2023-08-21T09:14:58;24.60;99.90
37050;DHT22;22958;51.232;6.826;2023-08-21T09:17:26;24.60;99.90
37050;DHT22;22958;51.232;6.826;2023-08-21T09:19:51;24.60;99.90
37050;DHT22;22958;51.232;6.826;2023-08-21T09:22:18;25.00;99.90
37050;DHT22;22958;51.232;6.826;2023-08-21T09:27:26;25.40;99.90
37050;DHT22;22958;51.232;6.826;2023-08-21T09:29:51;25.70;99.90
37050;DHT22;22958;51.232;6.826;2023-08-21T09:32:17;25.80;99.90
37050;DHT22;22958;51.232;6.826;2023-08-21T09:34:42;25.50;99.90
37050;DHT22;22958;51.232;6.826;2023-08-21T09:37:09;25.70;99.90
37050;DHT22;22958;51.232;6.826;2023-08-21T09:39:36;25.70;99.90
37050;DHT22;22958;51.232;6.826;2023-08-21T09:42:08;26.00;99.90
37050;DHT22;22958;51.232;6.826;2023-08-21T09:44:41;26.00;99.90
37050;DHT22;22958;51.232;6.826;2023-08-21T09:47:11;25.70;99.90
37050;DHT22;22958;51.232;6.826;2023-08-21T09:49:38;25.80;99.90
37050;DHT22;22958;51.232;6.826;2023-08-21T09:52:08;26.10;99.90
37050;DHT22;22958;51.232;6.826;2023-08-21T09:54:37;26.20;99.90
37050;DHT22;22958;51.232;6.826;2023-08-21T09:57:04;26.40;99.90
37050;DHT22;22958;51.232;6.826;2023-08-21T09:59:32;26.00;99.90
37050;DHT22;22958;51.232;6.826;2023-08-21T10:01:59;26.20;99.90
37050;DHT22;22958;51.232;6.826;2023-08-21T10:04:28;26.00;99.90
37050;DHT22;22958;51.232;6.826;2023-08-21T10:06:55;26.00;99.90
37050;DHT22;22958;51.232;6.826;2023-08-21T10:09:23;25.70;99.90
37050;DHT22;22958;51.232;6.826;2023-08-21T10:11:49;25.80;99.90
37050;DHT22;22958;51.232;6.826;2023-08-21T10:14:15;26.20;99.90
37050;DHT22;22958;51.232;6.826;2023-08-21T10:16:41;26.30;99.90
37050;DHT22;22958;51.232;6.826;2023-08-21T10:19:07;26.50;99.90
37050;DHT22;22958;51.232;6.826;2023-08-21T10:21:37;26.80;99.90
37050;DHT22;22958;51.232;6.826;2023-08-21T10:24:03;26.80;99.90
37050;DHT22;22958;51.232;6.826;2023-08-21T10:26:29;26.70;99.90
37050;DHT22;22958;51.232;6.826;2023-08-21T10:28:59;26.70;99.90
37050;DHT22;22958;51.232;6.826;2023-08-21T10:31:35;26.30;99.90
37050;DHT22;22958;51.232;6.826;2023-08-21T10:34:09;26.40;99.90
37050;DHT22;22958;51.232;6.826;2023-08-21T10:39:23;26.60;99.90
37050;DHT22;22958;51.232;6.826;2023-08-21T10:42:02;26.60;99.90
37050;DHT22;22958;51.232;6.826;2023-08-21T10:47:21;26.80;99.90
37050;DHT22;22958;51.232;6.826;2023-08-21T10:49:51;26.90;99.90
37050;DHT22;22958;51.232;6.826;2023-08-21T10:52:34;26.70;99.90
37050;DHT22;22958;51.232;6.826;2023-08-21T10:55:01;26.40;99.90
37050;DHT22;22958;51.232;6.826;2023-08-21T10:57:32;26.70;99.90
37050;DHT22;22958;51.232;6.826;2023-08-21T10:59:58;26.80;99.90
37050;DHT22;22958;51.232;6.826;2023-08-21T11:02:29;26.80;99.90
37050;DHT22;22958;51.232;6.826;2023-08-21T11:04:55;26.70;99.90
37050;DHT22;22958;51.232;6.826;2023-08-21T11:07:21;26.70;99.90
37050;DHT22;22958;51.232;6.826;2023-08-21T11:09:48;26.90;99.90
37050;DHT22;22958;51.232;6.826;2023-08-21T11:12:21;27.90;99.90
37050;DHT22;22958;51.232;6.826;2023-08-21T11:14:47;28.50;99.90
37050;DHT22;22958;51.232;6.826;2023-08-21T11:17:13;29.10;99.90
37050;DHT22;22958;51.232;6.826;2023-08-21T11:19:40;29.10;99.90
37050;DHT22;22958;51.232;6.826;2023-08-21T11:22:06;29.20;99.90
37050;DHT22;22958;51.232;6.826;2023-08-21T11:27:10;32.30;99.90
37050;DHT22;22958;51.232;6.826;2023-08-21T11:29:48;32.00;99.90
37050;DHT22;22958;51.232;6.826;2023-08-21T11:32:17;30.80;99.90
37050;DHT22;22958;51.232;6.826;2023-08-21T11:34:54;31.00;99.90
37050;DHT22;22958;51.232;6.826;2023-08-21T11:37:21;31.20;99.60
37050;DHT22;22958;51.232;6.826;2023-08-21T11:39:49;31.60;99.90
37050;DHT22;22958;51.232;6.826;2023-08-21T11:42:16;31.00;99.80
37050;DHT22;22958;51.232;6.826;2023-08-21T11:44:43;31.30;99.30
37050;DHT22;22958;51.232;6.826;2023-08-21T11:47:10;31.30;99.90
37050;DHT22;22958;51.232;6.826;2023-08-21T11:49:42;33.70;97.10
37050;DHT22;22958;51.232;6.826;2023-08-21T11:52:09;35.40;93.80
37050;DHT22;22958;51.232;6.826;2023-08-21T11:54:36;33.30;94.30
37050;DHT22;22958;51.232;6.826;2023-08-21T11:57:12;34.00;94.10
37050;DHT22;22958;51.232;6.826;2023-08-21T11:59:38;33.30;94.50
37050;DHT22;22958;51.232;6.826;2023-08-21T12:02:25;33.30;94.20
37050;DHT22;22958;51.232;6.826;2023-08-21T12:05:02;32.00;95.20
37050;DHT22;22958;51.232;6.826;2023-08-21T12:07:28;31.90;96.50
37050;DHT22;22958;51.232;6.826;2023-08-21T12:09:54;33.20;95.20
37050;DHT22;22958;51.232;6.826;2023-08-21T12:12:19;35.20;93.00
37050;DHT22;22958;51.232;6.826;2023-08-21T12:14:46;33.80;92.60
37050;DHT22;22958;51.232;6.826;2023-08-21T12:17:11;32.70;94.90
37050;DHT22;22958;51.232;6.826;2023-08-21T12:19:37;33.00;94.30
37050;DHT22;22958;51.232;6.826;2023-08-21T12:22:03;33.70;93.90
37050;DHT22;22958;51.232;6.826;2023-08-21T12:24:29;35.50;91.90
37050;DHT22;22958;51.232;6.826;2023-08-21T12:26:55;34.50;92.20
37050;DHT22;22958;51.232;6.826;2023-08-21T12:29:21;36.40;91.30
37050;DHT22;22958;51.232;6.826;2023-08-21T12:31:46;37.10;87.40
37050;DHT22;22958;51.232;6.826;2023-08-21T12:34:12;35.80;87.80
37050;DHT22;22958;51.232;6.826;2023-08-21T12:36:38;35.50;88.00
37050;DHT22;22958;51.232;6.826;2023-08-21T12:39:04;37.00;85.60
37050;DHT22;22958;51.232;6.826;2023-08-21T12:41:30;37.50;84.30
37050;DHT22;22958;51.232;6.826;2023-08-21T12:43:56;38.60;81.40
37050;DHT22;22958;51.232;6.826;2023-08-21T12:46:21;38.80;79.80
37050;DHT22;22958;51.232;6.826;2023-08-21T12:48:47;38.30;77.10
37050;DHT22;22958;51.232;6.826;2023-08-21T12:51:13;36.00;79.60
37050;DHT22;22958;51.232;6.826;2023-08-21T12:53:39;36.40;78.60
37050;DHT22;22958;51.232;6.826;2023-08-21T12:56:05;38.40;77.80
37050;DHT22;22958;51.232;6.826;2023-08-21T12:58:30;39.30;75.20
37050;DHT22;22958;51.232;6.826;2023-08-21T13:00:56;36.50;76.90
37050;DHT22;22958;51.232;6.826;2023-08-21T13:03:22;35.00;82.50
37050;DHT22;22958;51.232;6.826;2023-08-21T13:05:47;37.40;80.00
37050;DHT22;22958;51.232;6.826;2023-08-21T13:08:13;36.40;79.70
37050;DHT22;22958;51.232;6.826;2023-08-21T13:10:39;37.90;77.20
37050;DHT22;22958;51.232;6.826;2023-08-21T13:13:05;38.40;74.70
37050;DHT22;22958;51.232;6.826;2023-08-21T13:15:30;40.10;72.00
37050;DHT22;22958;51.232;6.826;2023-08-21T13:17:57;38.00;72.80
37050;DHT22;22958;51.232;6.826;2023-08-21T13:20:22;36.90;76.40
37050;DHT22;22958;51.232;6.826;2023-08-21T13:22:52;38.70;74.00
37050;DHT22;22958;51.232;6.826;2023-08-21T13:25:22;38.30;72.70
37050;DHT22;22958;51.232;6.826;2023-08-21T13:27:50;36.80;73.90
37050;DHT22;22958;51.232;6.826;2023-08-21T13:30:16;38.10;72.60
37050;DHT22;22958;51.232;6.826;2023-08-21T13:32:43;37.30;71.90
37050;DHT22;22958;51.232;6.826;2023-08-21T13:35:08;36.40;72.80
37050;DHT22;22958;51.232;6.826;2023-08-21T13:37:35;34.40;74.10
37050;DHT22;22958;51.232;6.826;2023-08-21T13:40:01;34.50;76.20
37050;DHT22;22958;51.232;6.826;2023-08-21T13:42:34;34.00;78.30
37050;DHT22;22958;51.232;6.826;2023-08-21T13:45:02;35.10;76.70
37050;DHT22;22958;51.232;6.826;2023-08-21T13:47:29;33.60;78.60
37050;DHT22;22958;51.232;6.826;2023-08-21T13:49:54;33.50;81.00
37050;DHT22;22958;51.232;6.826;2023-08-21T13:52:20;33.00;81.70
37050;DHT22;22958;51.232;6.826;2023-08-21T13:54:46;34.10;79.20
37050;DHT22;22958;51.232;6.826;2023-08-21T13:57:11;34.60;77.60
37050;DHT22;22958;51.232;6.826;2023-08-21T13:59:37;34.50;77.90
37050;DHT22;22958;51.232;6.826;2023-08-21T14:02:02;33.80;79.00
37050;DHT22;22958;51.232;6.826;2023-08-21T14:04:29;32.80;81.60
37050;DHT22;22958;51.232;6.826;2023-08-21T14:06:55;32.70;82.00
37050;DHT22;22958;51.232;6.826;2023-08-21T14:09:20;31.90;84.70
37050;DHT22;22958;51.232;6.826;2023-08-21T14:11:46;31.20;86.70
37050;DHT22;22958;51.232;6.826;2023-08-21T14:14:11;30.70;90.10
37050;DHT22;22958;51.232;6.826;2023-08-21T14:16:37;31.60;87.60
37050;DHT22;22958;51.232;6.826;2023-08-21T14:19:03;34.20;83.20
37050;DHT22;22958;51.232;6.826;2023-08-21T14:21:28;34.80;80.50
37050;DHT22;22958;51.232;6.826;2023-08-21T14:23:54;34.60;78.60
37050;DHT22;22958;51.232;6.826;2023-08-21T14:26:20;32.80;82.40
37050;DHT22;22958;51.232;6.826;2023-08-21T14:28:45;32.20;84.40
37050;DHT22;22958;51.232;6.826;2023-08-21T14:31:16;33.90;81.70
37050;DHT22;22958;51.232;6.826;2023-08-21T14:33:41;33.00;81.50
37050;DHT22;22958;51.232;6.826;2023-08-21T14:36:07;33.80;82.10
37050;DHT22;22958;51.232;6.826;2023-08-21T14:38:32;34.40;80.70
37050;DHT22;22958;51.232;6.826;2023-08-21T14:40:58;34.40;80.00
37050;DHT22;22958;51.232;6.826;2023-08-21T14:43:23;32.40;83.50
37050;DHT22;22958;51.232;6.826;2023-08-21T14:45:49;31.90;87.10
37050;DHT22;22958;51.232;6.826;2023-08-21T14:48:15;31.60;89.50
37050;DHT22;22958;51.232;6.826;2023-08-21T14:50:40;31.40;90.10
37050;DHT22;22958;51.232;6.826;2023-08-21T14:53:06;31.20;90.40
37050;DHT22;22958;51.232;6.826;2023-08-21T14:55:31;31.20;90.80
37050;DHT22;22958;51.232;6.826;2023-08-21T14:57:57;31.70;90.90
37050;DHT22;22958;51.232;6.826;2023-08-21T15:00:22;31.20;90.10
37050;DHT22;22958;51.232;6.826;2023-08-21T15:02:48;31.10;90.90
37050;DHT22;22958;51.232;6.826;2023-08-21T15:05:13;31.10;90.70
37050;DHT22;22958;51.232;6.826;2023-08-21T15:07:41;30.70;90.30
37050;DHT22;22958;51.232;6.826;2023-08-21T15:10:07;31.30;90.50
37050;DHT22;22958;51.232;6.826;2023-08-21T15:12:33;32.20;88.70
37050;DHT22;22958;51.232;6.826;2023-08-21T15:14:58;32.50;86.70
37050;DHT22;22958;51.232;6.826;2023-08-21T15:17:24;31.70;88.50
37050;DHT22;22958;51.232;6.826;2023-08-21T15:19:49;31.80;90.00
37050;DHT22;22958;51.232;6.826;2023-08-21T15:22:15;31.50;89.20
37050;DHT22;22958;51.232;6.826;2023-08-21T15:24:40;31.70;89.40
37050;DHT22;22958;51.232;6.826;2023-08-21T15:27:06;31.00;90.00
37050;DHT22;22958;51.232;6.826;2023-08-21T15:29:31;31.70;90.70
37050;DHT22;22958;51.232;6.826;2023-08-21T15:31:57;31.20;90.60
37050;DHT22;22958;51.232;6.826;2023-08-21T15:34:22;30.90;89.70
37050;DHT22;22958;51.232;6.826;2023-08-21T15:36:48;29.80;91.60